Time;durP1;ratioP1;P1;durP2;ratioP2;P2;SDS_P1;SDS_P2;PMS_P1;PMS_P2;Temp;Humidity;BMP_temperature;BMP_pressure;BME280_temperature;BME280_humidity;BME280_pressure;Samples;Min_cycle;Max_cycle;Signal;HPM_P1;HPM_P2
2022/03/20 00:01:09;;;;;;;78.20;35.38;;;;;;;0.69;40.73;103168.42;1724395;81;23104;-54
2022/03/20 00:03:37;;;;;;;71.42;37.23;;;;;;;0.69;40.83;103168.42;1729871;81;21043;-55
2022/03/20 00:06:04;;;;;;;72.60;36.17;;;;;;;0.70;41.03;103166.69;1735382;82;21007;-55
2022/03/20 00:08:31;;;;;;;76.72;37.55;;;;;;;0.74;41.10;103166.72;1729324;81;21053;-54
2022/03/20 00:11:01;;;;;;;75.30;40.95;;;;;;;0.75;41.21;103164.98;1726897;82;21110;-55
2022/03/20 00:13:27;;;;;;;79.53;39.23;;;;;;;0.78;41.29;103157.23;1727296;81;22293;-54
2022/03/20 00:15:56;;;;;;;75.22;39.63;;;;;;;0.80;41.46;103155.51;1719897;81;21064;-54
2022/03/20 00:18:26;;;;;;;73.62;40.30;;;;;;;0.83;41.50;103158.13;1721685;81;21035;-53
2022/03/20 00:20:57;;;;;;;87.47;42.60;;;;;;;0.84;41.58;103159.87;1740060;82;21066;-54
2022/03/20 00:23:27;;;;;;;77.72;39.70;;;;;;;0.87;41.69;103158.56;1724320;81;21000;-54
2022/03/20 00:25:55;;;;;;;87.15;41.15;;;;;;;0.87;41.88;103155.97;1728449;82;21233;-54
2022/03/20 00:28:23;;;;;;;90.65;40.50;;;;;;;0.90;42.07;103154.69;1727509;81;22333;-54
2022/03/20 00:30:50;;;;;;;71.12;37.38;;;;;;;0.87;42.19;103150.78;1726939;81;21038;-54
2022/03/20 00:33:17;;;;;;;79.07;39.55;;;;;;;0.86;42.42;103156.84;1723608;81;21047;-54
2022/03/20 00:35:44;;;;;;;66.37;36.20;;;;;;;0.84;42.64;103159.87;1724208;82;21540;-53
2022/03/20 00:38:11;;;;;;;60.92;34.98;;;;;;;0.83;42.87;103152.94;1728138;81;21116;-54
2022/03/20 00:40:38;;;;;;;76.20;36.05;;;;;;;0.85;43.13;103156.84;1750019;81;20995;-53
2022/03/20 00:43:05;;;;;;;70.57;35.35;;;;;;;0.84;43.45;103158.98;1735933;81;21062;-53
2022/03/20 00:45:34;;;;;;;59.25;32.15;;;;;;;0.83;43.79;103154.23;1688832;84;21542;-54
2022/03/20 00:48:01;;;;;;;64.07;32.48;;;;;;;0.81;44.58;103158.55;1739567;81;21509;-54
2022/03/20 00:50:28;;;;;;;61.83;32.58;;;;;;;0.81;44.58;103158.55;1734876;81;21220;-53
2022/03/20 00:52:57;;;;;;;57.25;29.20;;;;;;;0.79;44.88;103153.80;1727053;81;21077;-53
2022/03/20 00:55:23;;;;;;;54.00;29.02;;;;;;;0.78;45.21;103155.08;1729170;82;21110;-53
2022/03/20 00:57:50;;;;;;;54.95;27.62;;;;;;;0.77;45.45;103158.08;1726536;81;21105;-53
2022/03/20 01:00:17;;;;;;;52.78;26.75;;;;;;;0.77;45.73;103154.19;1726546;81;21034;-53
2022/03/20 01:02:44;;;;;;;51.48;26.95;;;;;;;0.78;45.80;103152.05;1725224;82;21195;-53
2022/03/20 01:05:11;;;;;;;48.58;27.37;;;;;;;0.79;46.07;103149.91;1730727;81;21057;-53
2022/03/20 01:07:40;;;;;;;49.80;25.88;;;;;;;0.81;46.00;103151.18;1736403;82;21498;-53
2022/03/20 01:10:08;;;;;;;52.75;25.32;;;;;;;0.82;46.00;103150.33;1735502;81;21082;-52
2022/03/20 01:12:38;;;;;;;48.87;24.43;;;;;;;0.84;45.98;103151.20;1736010;81;21035;-52
2022/03/20 01:15:10;;;;;;;43.63;23.67;;;;;;;0.84;45.89;103149.91;1737826;81;21123;-53
2022/03/20 01:17:37;;;;;;;43.42;24.32;;;;;;;0.84;45.92;103149.50;1730872;82;21091;-52
2022/03/20 01:20:09;;;;;;;47.25;21.87;;;;;;;0.88;45.96;103155.56;1735475;81;21059;-54
2022/03/20 01:22:37;;;;;;;48.50;23.12;;;;;;;0.88;46.04;103148.64;1739576;80;21000;-52
2022/03/20 01:25:06;;;;;;;34.27;20.82;;;;;;;0.91;46.12;103144.77;1732452;81;21087;-52
2022/03/20 01:27:34;;;;;;;36.35;21.95;;;;;;;0.91;46.19;103148.66;1730240;81;21098;-53
2022/03/20 01:30:02;;;;;;;47.00;23.95;;;;;;;0.91;46.27;103146.06;1731075;82;21038;-52
2022/03/20 01:32:30;;;;;;;45.30;21.35;;;;;;;0.89;46.43;103152.98;1724521;82;21055;-53
2022/03/20 01:34:57;;;;;;;38.78;21.27;;;;;;;0.89;46.56;103150.38;1727548;81;21071;-54
2022/03/20 01:37:23;;;;;;;35.90;19.40;;;;;;;0.87;46.70;103147.33;1720584;82;21463;-53
2022/03/20 01:39:52;;;;;;;39.23;20.43;;;;;;;0.85;46.83;103149.06;1726421;82;21270;-55
2022/03/20 01:42:20;;;;;;;34.45;19.30;;;;;;;0.83;46.93;103147.75;1726680;81;21113;-53
2022/03/20 01:44:47;;;;;;;40.95;19.40;;;;;;;0.82;47.03;103141.27;1729524;81;21130;-53
2022/03/20 01:47:15;;;;;;;39.92;19.40;;;;;;;0.86;46.92;103150.80;1681047;84;21086;-53
2022/03/20 01:49:41;;;;;;;40.92;19.80;;;;;;;0.83;46.86;103142.56;1727442;82;21526;-53
2022/03/20 01:52:24;;;;;;;38.58;19.57;;;;;;;0.85;46.80;103143.88;1733545;82;21134;-54
2022/03/20 01:54:45;;;;;;;33.53;19.17;;;;;;;0.85;46.79;103145.17;1724832;81;21106;-53
2022/03/20 01:57:23;;;;;;;32.85;18.00;;;;;;;0.87;46.75;103146.89;1721184;82;21059;-53
2022/03/20 01:59:50;;;;;;;28.55;16.73;;;;;;;0.87;46.78;103146.89;1714802;81;21545;-53
2022/03/20 02:02:17;;;;;;;35.52;19.35;;;;;;;0.86;46.82;103142.59;1730595;82;21092;-55
2022/03/20 02:04:44;;;;;;;27.80;17.25;;;;;;;0.85;46.96;103142.14;1723109;82;21139;-53
2022/03/20 02:07:12;;;;;;;38.88;18.75;;;;;;;0.84;47.14;103134.35;1732272;82;21074;-54
2022/03/20 02:09:40;;;;;;;37.17;18.90;;;;;;;0.86;47.17;103139.14;1722384;81;22221;-54
2022/03/20 02:12:09;;;;;;;36.95;18.00;;;;;;;0.84;47.06;103138.23;1732676;82;21019;-54
2022/03/20 02:14:36;;;;;;;28.30;17.15;;;;;;;0.83;47.55;103140.41;1729044;81;21437;-53
2022/03/20 02:17:03;;;;;;;33.18;18.62;;;;;;;0.82;47.73;103146.45;1710408;82;21125;-53
2022/03/20 02:19:30;;;;;;;37.03;18.20;;;;;;;0.80;47.88;103149.03;1707401;81;20988;-53
2022/03/20 02:21:57;;;;;;;33.53;17.52;;;;;;;0.79;48.05;103149.02;1726584;81;21063;-54
2022/03/20 02:24:41;;;;;;;40.50;17.73;;;;;;;0.77;47.98;103154.19;1721976;81;21592;-54
2022/03/20 02:27:15;;;;;;;26.68;16.65;;;;;;;0.74;48.03;103149.02;1732473;81;21043;-54
2022/03/20 02:29:47;;;;;;;27.02;16.10;;;;;;;0.74;48.19;103152.91;1718378;81;21089;-54
2022/03/20 02:32:16;;;;;;;33.15;16.57;;;;;;;0.72;48.18;103154.19;1729213;82;21588;-54
2022/03/20 02:34:45;;;;;;;34.15;16.95;;;;;;;0.73;48.21;103161.09;1717838;81;21385;-54
2022/03/20 02:37:11;;;;;;;28.60;15.75;;;;;;;0.69;47.84;103156.76;1689958;83;21079;-54
2022/03/20 02:39:38;;;;;;;30.70;17.90;;;;;;;0.69;47.84;103156.76;1699249;82;21056;-54
2022/03/20 02:42:07;;;;;;;36.90;17.25;;;;;;;0.70;48.26;103152.43;1719535;82;21196;-53
2022/03/20 02:45:06;;;;;;;29.42;17.00;;;;;;;0.72;48.46;103148.11;1727443;81;21070;-54
2022/03/20 02:47:43;;;;;;;29.72;16.12;;;;;;;0.75;48.48;103149.44;1720722;82;21130;-53
2022/03/20 02:50:17;;;;;;;29.72;16.17;;;;;;;0.76;48.78;103151.59;1715265;81;21055;-53
2022/03/20 02:52:58;;;;;;;25.03;15.73;;;;;;;0.75;48.98;103154.62;1704472;83;21083;-53
2022/03/20 02:55:37;;;;;;;29.23;16.32;;;;;;;0.76;49.15;103151.59;1730653;82;21172;-53
2022/03/20 02:58:10;;;;;;;27.52;14.65;;;;;;;0.73;49.33;103145.97;1731266;82;21545;-54
2022/03/20 03:00:37;;;;;;;25.85;15.15;;;;;;;0.71;49.49;103141.22;1709649;81;21068;-53
2022/03/20 03:03:08;;;;;;;30.85;15.88;;;;;;;0.67;49.63;103131.67;1732816;81;21094;-53
2022/03/20 03:05:35;;;;;;;29.30;16.70;;;;;;;0.67;49.73;103136.86;1724020;81;21078;-53
2022/03/20 03:10:56;;;;;;;27.87;15.30;;;;;;;0.65;50.05;103129.08;1725989;81;21067;-53
2022/03/20 03:13:38;;;;;;;27.13;15.43;;;;;;;0.64;50.14;103129.06;1729180;81;21047;-54
2022/03/20 03:16:10;;;;;;;27.82;15.13;;;;;;;0.61;50.30;103129.07;1726167;82;20992;-53
2022/03/20 03:18:43;;;;;;;33.18;14.83;;;;;;;0.58;50.66;103127.31;1728682;81;21052;-53
2022/03/20 03:21:16;;;;;;;33.08;14.40;;;;;;;0.57;50.86;103124.27;1727756;82;21957;-54
2022/03/20 03:23:44;;;;;;;21.82;13.90;;;;;;;0.56;51.04;103119.97;1729968;81;21068;-53
2022/03/20 03:26:11;;;;;;;25.10;14.07;;;;;;;0.59;51.05;103120.40;1695318;83;21095;-53
2022/03/20 03:28:38;;;;;;;26.80;15.15;;;;;;;0.59;51.12;103127.77;1725216;81;21053;-54
2022/03/20 03:31:08;;;;;;;24.52;13.83;;;;;;;0.56;51.21;103125.16;1732380;81;22228;-53
2022/03/20 03:35:41;;;;;;;24.92;14.23;;;;;;;0.56;51.28;103122.56;1727126;82;21406;-54
2022/03/20 03:36:06;;;;;;;22.30;13.03;;;;;;;0.54;51.39;103122.98;1722851;81;21085;-53
2022/03/20 03:38:36;;;;;;;24.27;13.90;;;;;;;0.54;51.38;103124.28;1725851;82;21537;-54
2022/03/20 03:41:03;;;;;;;28.62;15.43;;;;;;;0.54;51.38;103132.05;1726155;82;21031;-54
2022/03/20 03:43:30;;;;;;;22.27;13.68;;;;;;;0.55;51.39;103122.11;1723422;82;21166;-53
2022/03/20 03:45:58;;;;;;;26.57;14.20;;;;;;;0.55;51.36;103121.70;1726930;82;21137;-54
2022/03/20 03:48:25;;;;;;;28.60;15.28;;;;;;;0.54;51.28;103114.77;1728606;82;21089;-53
2022/03/20 03:50:53;;;;;;;27.13;15.40;;;;;;;0.53;51.31;103114.77;1692337;83;21134;-53
2022/03/20 03:53:20;;;;;;;25.40;14.45;;;;;;;0.50;51.27;103117.33;1697872;84;21060;-54
2022/03/20 03:55:47;;;;;;;31.23;16.82;;;;;;;0.50;51.27;103117.33;1697015;83;21162;-54
2022/03/20 03:58:14;;;;;;;29.77;16.20;;;;;;;0.47;51.33;103109.53;1728131;82;21103;-53
2022/03/20 04:00:43;;;;;;;25.05;16.40;;;;;;;0.48;51.18;103112.14;1735982;81;21035;-54
2022/03/20 04:03:10;;;;;;;28.02;16.65;;;;;;;0.46;51.41;103100.91;1692389;83;21083;-54
2022/03/20 04:05:37;;;;;;;33.70;15.48;;;;;;;0.44;51.41;103099.15;1696540;83;21667;-53
2022/03/20 04:08:08;;;;;;;29.20;16.77;;;;;;;0.39;51.47;103097.85;1732914;82;21109;-53
2022/03/20 04:10:35;;;;;;;28.25;15.55;;;;;;;0.37;51.42;103096.98;1734868;81;21246;-53
2022/03/20 04:13:02;;;;;;;28.92;16.07;;;;;;;0.35;51.41;103091.80;1730594;81;21090;-54
2022/03/20 04:15:32;;;;;;;30.10;17.67;;;;;;;0.36;51.35;103097.83;1693309;83;21530;-54
2022/03/20 04:18:00;;;;;;;28.73;16.70;;;;;;;0.38;51.20;103101.28;1672302;84;21092;-53
2022/03/20 04:20:27;;;;;;;36.28;17.45;;;;;;;0.36;51.11;103106.89;1732475;81;21015;-54
2022/03/20 04:25:39;;;;;;;25.48;16.02;;;;;;;0.34;50.81;103095.66;1697074;83;21083;-54
2022/03/20 04:28:08;;;;;;;31.20;17.48;;;;;;;0.33;50.66;103093.48;1733643;81;21101;-54
2022/03/20 04:30:34;;;;;;;32.05;17.52;;;;;;;0.31;50.59;103103.41;1736660;81;21574;-54
2022/03/20 04:33:04;;;;;;;33.75;17.98;;;;;;;0.27;50.13;103098.64;1724733;81;21004;-54
2022/03/20 04:35:31;;;;;;;35.65;19.05;;;;;;;0.27;50.13;103098.64;1731725;81;21109;-54
2022/03/20 04:37:58;;;;;;;30.35;18.82;;;;;;;0.25;49.59;103099.47;1760553;81;21051;-54
2022/03/20 04:40:25;;;;;;;42.00;20.37;;;;;;;0.30;48.81;103109.03;1727186;81;21024;-54
2022/03/20 04:42:51;;;;;;;34.03;21.12;;;;;;;0.30;48.81;103109.03;1718066;83;21066;-53
2022/03/20 04:45:18;;;;;;;39.70;21.90;;;;;;;0.31;48.57;103109.88;1729384;81;21048;-54
2022/03/20 04:58:47;;;;;;;39.67;23.73;;;;;;;0.25;47.87;103108.53;1740842;82;21012;-55
2022/03/20 05:01:14;;;;;;;43.10;23.55;;;;;;;0.22;48.03;103114.98;1737818;82;21443;-54
2022/03/20 05:03:41;;;;;;;43.83;23.15;;;;;;;0.22;48.15;103117.58;1737588;82;21051;-54
2022/03/20 05:06:07;;;;;;;38.35;21.95;;;;;;;0.18;49.12;103116.69;1719034;81;21637;-54
2022/03/20 05:08:37;;;;;;;38.02;21.23;;;;;;;0.18;49.12;103116.69;1729868;81;21101;-54
2022/03/20 05:13:50;;;;;;;34.67;19.07;;;;;;;0.23;49.71;103125.80;1741689;81;21944;-54
2022/03/20 05:16:19;;;;;;;28.45;18.32;;;;;;;0.35;50.49;103132.34;1741486;80;21565;-54
2022/03/20 05:18:47;;;;;;;33.08;18.98;;;;;;;0.35;50.49;103132.34;1734555;82;21552;-54
2022/03/20 05:21:13;;;;;;;35.98;18.70;;;;;;;0.41;50.53;103134.98;1704240;83;21060;-54
2022/03/20 05:23:40;;;;;;;35.55;17.77;;;;;;;0.47;50.50;103127.67;1733099;81;21085;-54
2022/03/20 05:26:06;;;;;;;34.65;19.40;;;;;;;0.52;50.47;103132.05;1728311;81;21846;-54
2022/03/20 05:28:35;;;;;;;32.38;18.15;;;;;;;0.61;50.51;103132.96;1727323;81;21499;-54
2022/03/20 05:31:03;;;;;;;35.38;18.80;;;;;;;0.71;50.54;103133.45;1722618;81;20996;-54
2022/03/20 05:33:32;;;;;;;36.58;17.82;;;;;;;0.80;50.56;103126.14;1721549;81;21094;-54
2022/03/20 05:36:00;;;;;;;33.45;17.77;;;;;;;0.86;50.95;103137.41;1726060;81;21079;-54
2022/03/20 05:38:27;;;;;;;27.62;16.95;;;;;;;0.93;51.26;103141.75;1727608;82;21068;-54
2022/03/20 05:41:43;;;;;;;31.10;16.97;;;;;;;0.99;51.37;103142.19;1725465;81;21047;-54
2022/03/20 05:43:23;;;;;;;31.42;16.02;;;;;;;1.07;51.42;103144.83;1726024;82;21118;-53
2022/03/20 05:45:50;;;;;;;30.52;16.42;;;;;;;1.15;51.43;103148.77;1721835;82;21589;-54
2022/03/20 05:48:16;;;;;;;25.72;14.25;;;;;;;1.22;51.54;103144.88;1723958;82;21087;-55
2022/03/20 05:50:43;;;;;;;21.77;13.60;;;;;;;1.30;51.42;103150.97;1695072;83;21129;-54
2022/03/20 05:53:10;;;;;;;22.95;13.20;;;;;;;1.39;50.93;103155.31;1685603;83;21165;-53
2022/03/20 05:58:23;;;;;;;27.35;15.38;;;;;;;1.57;50.57;103167.47;1738622;81;21077;-54
2022/03/20 06:00:50;;;;;;;24.25;14.18;;;;;;;1.66;50.24;103161.43;1738805;81;21082;-53
2022/03/20 06:03:17;;;;;;;28.52;14.80;;;;;;;1.71;50.24;103164.05;1736454;82;21621;-54
2022/03/20 06:05:47;;;;;;;27.20;14.47;;;;;;;1.78;50.21;103158.87;1733314;81;21063;-53
2022/03/20 06:08:14;;;;;;;29.15;15.40;;;;;;;1.85;50.12;103161.05;1740716;82;21061;-52
2022/03/20 06:10:43;;;;;;;26.07;16.30;;;;;;;1.89;49.77;103156.72;1731249;81;21114;-52
2022/03/20 06:13:09;;;;;;;24.47;15.00;;;;;;;1.94;49.68;103154.98;1734476;82;22349;-53
2022/03/20 06:15:38;;;;;;;36.88;16.00;;;;;;;1.99;49.67;103154.11;1738248;81;21051;-52
2022/03/20 06:18:05;;;;;;;31.33;15.35;;;;;;;2.04;49.49;103152.37;1739366;81;21091;-53
2022/03/20 06:20:34;;;;;;;31.17;16.48;;;;;;;2.09;49.44;103152.83;1734048;81;21094;-53
2022/03/20 06:23:02;;;;;;;27.05;14.78;;;;;;;2.12;49.20;103154.10;1737753;81;21074;-51
2022/03/20 06:25:28;;;;;;;22.55;14.65;;;;;;;2.17;49.16;103157.16;1729205;81;21046;-52
2022/03/20 06:28:02;;;;;;;20.82;13.93;;;;;;;2.26;48.94;103155.42;1727015;82;22688;-52
2022/03/20 06:30:25;;;;;;;23.73;14.50;;;;;;;2.33;48.86;103150.20;1726632;81;21082;-53
2022/03/20 06:32:52;;;;;;;28.65;14.25;;;;;;;2.41;48.49;103153.66;1729150;81;21030;-52
2022/03/20 06:35:19;;;;;;;27.15;13.48;;;;;;;2.49;48.06;103147.16;1725349;81;21012;-51
2022/03/20 06:37:48;;;;;;;25.00;13.35;;;;;;;2.53;47.42;103153.21;1733754;82;21118;-53
2022/03/20 06:40:16;;;;;;;31.75;14.10;;;;;;;2.61;47.09;103141.06;1731969;82;21054;-51
2022/03/20 06:42:43;;;;;;;19.73;12.40;;;;;;;2.64;46.24;103140.17;1732030;82;20988;-51
2022/03/20 06:45:11;;;;;;;17.95;12.15;;;;;;;2.69;45.88;103143.22;1718628;81;21098;-53
2022/03/20 06:47:39;;;;;;;20.00;11.55;;;;;;;2.79;46.16;103146.22;1726025;81;21098;-51
2022/03/20 06:50:07;;;;;;;21.10;11.18;;;;;;;2.84;45.77;103151.83;1722748;81;21067;-55
2022/03/20 06:52:35;;;;;;;17.00;11.55;;;;;;;2.94;45.45;103154.82;1732289;82;21823;-52
2022/03/20 06:55:03;;;;;;;21.77;11.33;;;;;;;2.99;45.65;103150.46;1730873;81;21051;-52
2022/03/20 06:57:30;;;;;;;16.40;10.98;;;;;;;3.06;45.59;103156.09;1726663;82;21516;-52
2022/03/20 06:59:59;;;;;;;15.98;9.78;;;;;;;3.13;45.53;103149.98;1725438;81;21043;-52
2022/03/20 07:02:27;;;;;;;15.90;9.68;;;;;;;3.21;45.72;103143.45;1723210;82;21071;-52
2022/03/20 07:04:53;;;;;;;18.62;10.38;;;;;;;3.30;45.37;103139.94;1720122;81;21246;-52
2022/03/20 07:07:23;;;;;;;17.45;10.50;;;;;;;3.34;44.60;103140.34;1724404;82;21130;-52
2022/03/20 07:09:51;;;;;;;18.12;10.93;;;;;;;3.40;44.42;103128.59;1724652;81;21031;-53
2022/03/20 07:12:18;;;;;;;19.70;11.03;;;;;;;3.51;44.27;103133.72;1725619;82;21353;-53
2022/03/20 07:14:46;;;;;;;23.80;12.60;;;;;;;3.59;43.84;103134.55;1723774;81;21526;-52
2022/03/20 07:17:16;;;;;;;18.87;11.03;;;;;;;3.67;43.70;103138.41;1725146;82;21412;-53
2022/03/20 07:19:43;;;;;;;18.42;11.55;;;;;;;3.74;44.05;103142.69;1723329;81;22288;-52
2022/03/20 07:22:14;;;;;;;21.77;11.22;;;;;;;3.81;44.10;103151.33;1722035;82;21486;-52
2022/03/20 07:24:43;;;;;;;19.05;11.85;;;;;;;3.87;43.89;103152.59;1730071;81;21019;-53
2022/03/20 07:29:55;;;;;;;21.87;11.43;;;;;;;3.99;43.76;103155.09;1735098;81;21211;-52
2022/03/20 07:32:22;;;;;;;19.23;12.80;;;;;;;4.06;43.36;103159.37;1734128;82;21484;-53
2022/03/20 07:34:51;;;;;;;17.45;11.18;;;;;;;4.13;43.25;103153.67;1691240;83;21664;-53
2022/03/20 07:37:18;;;;;;;26.75;13.32;;;;;;;4.23;43.33;103150.55;1695526;83;21030;-52
2022/03/20 07:39:51;;;;;;;17.73;11.30;;;;;;;4.31;42.97;103149.19;1685219;83;22281;-52
2022/03/20 07:42:18;;;;;;;18.95;11.15;;;;;;;4.39;42.84;103151.28;1663163;84;21146;-52
2022/03/20 07:44:47;;;;;;;18.98;10.82;;;;;;;4.46;42.41;103151.19;1665243;85;21057;-52
2022/03/20 07:47:18;;;;;;;20.62;12.15;;;;;;;4.54;42.29;103148.94;1660937;85;21072;-52
2022/03/20 07:49:46;;;;;;;21.75;11.65;;;;;;;4.61;42.17;103144.95;1660396;84;21099;-52
2022/03/20 07:52:14;;;;;;;23.27;11.40;;;;;;;4.70;42.20;103137.47;1689009;83;21616;-53
2022/03/20 07:54:44;;;;;;;20.12;11.22;;;;;;;4.76;40.94;103128.73;1691129;83;21957;-52
2022/03/20 07:57:12;;;;;;;17.82;9.75;;;;;;;4.83;41.23;103132.98;1688593;84;21146;-52
2022/03/20 07:59:42;;;;;;;18.02;9.88;;;;;;;4.89;41.27;103133.34;1698531;84;21696;-52
2022/03/20 08:02:10;;;;;;;15.95;9.85;;;;;;;4.95;40.82;103132.82;1699905;84;21142;-53
2022/03/20 08:07:48;;;;;;;22.20;10.53;;;;;;;5.13;39.86;103126.52;1781630;79;22538;-53
2022/03/20 08:10:19;;;;;;;20.40;9.90;;;;;;;5.18;39.54;103123.85;1773939;78;20978;-51
2022/03/20 08:12:50;;;;;;;17.35;9.05;;;;;;;5.28;39.24;103125.87;1766889;80;21186;-54
2022/03/20 08:15:20;;;;;;;17.30;8.88;;;;;;;5.34;38.63;103121.87;1778652;80;21525;-54
2022/03/20 08:17:50;;;;;;;15.70;9.70;;;;;;;5.43;39.21;103119.56;1764582;80;21037;-52
2022/03/20 08:20:20;;;;;;;18.45;8.20;;;;;;;5.48;39.04;103123.86;1758160;80;21125;-53
2022/03/20 08:22:49;;;;;;;13.95;7.95;;;;;;;5.56;38.90;103119.39;1762575;80;21082;-53
2022/03/20 08:25:17;;;;;;;15.63;9.28;;;;;;;5.67;38.83;103121.82;1764668;80;21212;-53
2022/03/20 08:27:47;;;;;;;16.05;8.70;;;;;;;5.75;38.61;103120.41;1766209;80;20982;-53
2022/03/20 08:30:17;;;;;;;13.80;8.15;;;;;;;5.81;38.22;103116.37;1760616;78;21117;-53
2022/03/20 08:32:47;;;;;;;13.15;7.75;;;;;;;5.89;38.49;103114.50;1723111;81;21050;-54
2022/03/20 08:35:19;;;;;;;15.98;8.05;;;;;;;5.99;38.11;103114.39;1710042;82;21065;-53
2022/03/20 08:37:49;;;;;;;14.73;9.70;;;;;;;6.03;37.82;103114.28;1718553;82;21109;-53
2022/03/20 08:40:19;;;;;;;16.90;10.53;;;;;;;6.11;37.36;103117.63;1709951;82;21066;-52
2022/03/20 08:42:54;;;;;;;16.40;8.50;;;;;;;6.20;37.49;103115.75;1712211;82;21602;-53
2022/03/20 08:45:22;;;;;;;19.42;8.70;;;;;;;6.26;37.66;103118.27;1711948;81;21106;-53
2022/03/20 08:47:51;;;;;;;16.40;7.87;;;;;;;6.35;37.49;103115.47;1704684;82;21042;-53
2022/03/20 08:50:19;;;;;;;17.60;8.15;;;;;;;6.42;37.01;103119.72;1728053;82;21161;-53
2022/03/20 08:52:47;;;;;;;15.83;8.60;;;;;;;6.52;36.99;103117.77;1747946;81;21144;-54
2022/03/20 08:55:15;;;;;;;14.93;8.58;;;;;;;6.63;37.24;103119.73;1695496;82;21557;-54
2022/03/20 08:57:46;;;;;;;12.35;7.20;;;;;;;6.72;37.06;103114.76;1724672;82;21164;-52
2022/03/20 09:00:16;;;;;;;16.60;8.28;;;;;;;6.80;37.10;103115.47;1720191;82;21078;-51
2022/03/20 09:02:44;;;;;;;9.68;6.03;;;;;;;6.88;36.49;103111.40;1724399;81;21242;-52
2022/03/20 09:05:12;;;;;;;12.33;6.17;;;;;;;6.95;35.24;103111.67;1719428;82;21141;-53
2022/03/20 09:07:41;;;;;;;9.73;5.62;;;;;;;7.05;34.58;103106.66;1698701;83;21058;-52
2022/03/20 09:10:10;;;;;;;13.03;5.28;;;;;;;7.16;34.31;103114.30;1691594;84;21178;-52
2022/03/20 09:12:38;;;;;;;11.78;5.53;;;;;;;7.28;33.99;103114.47;1683116;83;21067;-53
2022/03/20 09:15:13;;;;;;;11.28;5.47;;;;;;;7.35;33.59;103109.95;1686280;83;21298;-53
2022/03/20 09:20:23;;;;;;;9.05;5.17;;;;;;;7.52;34.01;103109.56;1679929;83;21055;-53
2022/03/20 09:22:50;;;;;;;8.88;5.17;;;;;;;7.59;33.57;103108.05;1693217;84;22342;-54
2022/03/20 09:25:17;;;;;;;11.85;4.92;;;;;;;7.69;33.27;103115.70;1745101;80;21070;-53
2022/03/20 09:27:48;;;;;;;12.47;5.90;;;;;;;7.76;33.07;103114.19;1734717;82;22238;-54
2022/03/20 09:30:14;;;;;;;11.88;5.85;;;;;;;7.84;33.28;103114.47;1744101;80;21049;-53
2022/03/20 09:32:43;;;;;;;10.82;6.50;;;;;;;7.88;32.97;103103.00;1740190;80;21069;-52
2022/03/20 09:35:10;;;;;;;10.80;5.00;;;;;;;7.91;32.31;103106.86;1742142;80;21746;-53
2022/03/20 09:37:37;;;;;;;10.15;5.60;;;;;;;7.91;31.89;103107.70;1738732;81;21034;-52
2022/03/20 09:40:07;;;;;;;10.68;6.05;;;;;;;7.90;32.39;103098.14;1737177;81;21245;-52
2022/03/20 09:42:34;;;;;;;11.57;6.67;;;;;;;7.92;32.74;103096.80;1736412;82;21046;-52
2022/03/20 09:45:02;;;;;;;9.33;5.85;;;;;;;7.96;32.96;103096.66;1739945;80;21386;-53
2022/03/20 09:47:29;;;;;;;12.07;6.47;;;;;;;8.02;32.73;103102.21;1735480;80;21050;-52
2022/03/20 09:49:56;;;;;;;10.48;6.20;;;;;;;8.06;32.30;103099.05;1739210;82;21601;-52
2022/03/20 09:52:25;;;;;;;9.78;6.28;;;;;;;8.07;33.13;103099.02;1748100;80;21203;-53
2022/03/20 09:54:53;;;;;;;10.30;6.03;;;;;;;8.13;32.63;103097.98;1742767;80;21118;-52
2022/03/20 09:57:20;;;;;;;10.75;5.33;;;;;;;8.21;32.78;103088.61;1731147;80;21542;-53
2022/03/20 09:59:49;;;;;;;8.53;5.10;;;;;;;8.31;32.58;103095.33;1719059;82;21078;-52
2022/03/20 10:02:16;;;;;;;10.68;5.42;;;;;;;8.37;32.14;103085.53;1730004;80;21132;-53
2022/03/20 10:05:01;;;;;;;11.40;5.17;;;;;;;8.46;32.19;103085.75;1741098;80;21237;-53
2022/03/20 10:07:31;;;;;;;8.35;5.08;;;;;;;8.53;32.50;103082.51;1744062;80;21100;-53
2022/03/20 10:10:32;;;;;;;9.68;6.30;;;;;;;8.60;32.26;103074.01;1755487;79;21046;-53
2022/03/20 10:13:00;;;;;;;9.90;4.87;;;;;;;8.68;32.12;103078.13;1750570;80;21206;-53
2022/03/20 10:15:35;;;;;;;12.73;6.62;;;;;;;8.78;32.58;103077.87;1750294;79;21019;-53
2022/03/20 10:18:17;;;;;;;10.78;5.95;;;;;;;8.86;32.15;103078.05;1750554;80;21162;-52
2022/03/20 10:20:51;;;;;;;11.28;5.83;;;;;;;8.92;30.61;103067.80;1756328;80;21523;-53
2022/03/20 10:23:45;;;;;;;10.90;6.03;;;;;;;8.96;31.19;103069.45;1692931;84;21590;-52
2022/03/20 10:26:15;;;;;;;9.08;5.55;;;;;;;8.97;31.67;103063.73;1751552;80;21062;-52
2022/03/20 10:28:47;;;;;;;9.48;5.83;;;;;;;9.01;31.35;103062.28;1753542;80;21107;-53
2022/03/20 10:31:22;;;;;;;9.30;5.55;;;;;;;9.07;31.08;103063.39;1760293;79;21119;-52
2022/03/20 10:34:00;;;;;;;;;;;;;;;9.13;30.64;103054.91;1752459;80;21019;-52
2022/03/20 10:36:27;;;;;;;;;;;;;;;9.19;30.76;103065.23;1759132;80;20204;-53
2022/03/20 10:38:55;;;;;;;8.78;4.80;;;;;;;9.19;30.53;103062.15;1743062;80;20206;-53
2022/03/20 10:41:32;;;;;;;12.60;5.33;;;;;;;9.18;30.67;103049.06;1738909;80;21039;-53
2022/03/20 10:43:58;;;;;;;9.43;4.75;;;;;;;9.23;30.17;103052.39;1750086;80;21656;-52
2022/03/20 10:46:31;;;;;;;9.03;5.22;;;;;;;9.23;29.81;103050.66;1714364;82;21060;-53
2022/03/20 10:49:01;;;;;;;8.60;4.37;;;;;;;9.19;29.60;103048.16;1756028;79;21102;-52
2022/03/20 10:51:38;;;;;;;9.98;5.15;;;;;;;9.18;29.46;103047.74;1748086;80;21538;-51
2022/03/20 10:54:13;;;;;;;11.48;5.50;;;;;;;9.20;30.03;103046.80;1743434;80;21038;-51
2022/03/20 10:57:01;;;;;;;8.08;5.10;;;;;;;9.22;29.39;103037.56;1751755;80;21864;-51
2022/03/20 10:59:32;;;;;;;11.25;5.42;;;;;;;9.25;29.59;103031.75;1750562;80;21016;-51
2022/03/20 11:02:05;;;;;;;10.82;5.67;;;;;;;9.29;29.62;103036.45;1751704;79;21557;-51
2022/03/20 11:04:33;;;;;;;10.78;5.78;;;;;;;9.33;29.67;103028.89;1760452;79;21533;-53
2022/03/20 11:07:03;;;;;;;10.23;5.30;;;;;;;9.42;29.65;103027.26;1752948;80;21192;-52
2022/03/20 11:09:30;;;;;;;9.13;5.30;;;;;;;9.50;30.09;103029.65;1748686;80;21155;-50
2022/03/20 11:11:58;;;;;;;8.75;4.95;;;;;;;9.62;28.79;103023.13;1758424;79;21050;-53
2022/03/20 11:14:28;;;;;;;9.20;5.62;;;;;;;9.69;28.87;103017.20;1760354;79;20988;-52
2022/03/20 11:17:13;;;;;;;9.03;5.22;;;;;;;9.74;28.69;103020.06;1747275;80;21027;-52
2022/03/20 11:19:35;;;;;;;11.10;5.60;;;;;;;9.80;29.23;103015.91;1741906;81;21554;-52
2022/03/20 11:22:12;;;;;;;9.23;5.03;;;;;;;9.86;28.72;103001.22;1748372;79;23175;-54
2022/03/20 11:24:39;;;;;;;;;;;;;;;9.89;29.07;103006.84;1762027;80;21042;-53
2022/03/20 11:27:08;;;;;;;11.05;5.50;;;;;;;9.99;29.33;103005.59;1745798;80;20225;-54
2022/03/20 11:29:56;;;;;;;11.60;7.03;;;;;;;10.08;28.97;103000.92;1753570;80;21594;-53
2022/03/20 11:32:24;;;;;;;10.30;5.97;;;;;;;10.18;28.62;103000.52;1697367;82;21075;-52
2022/03/20 11:34:51;;;;;;;9.53;5.83;;;;;;;10.22;28.82;102991.61;1743979;81;21243;-53
2022/03/20 11:37:19;;;;;;;10.10;6.12;;;;;;;10.24;28.64;102991.56;1752664;80;21052;-53
2022/03/20 11:40:14;;;;;;;10.75;5.90;;;;;;;10.30;28.65;102991.31;1756241;80;21659;-52
2022/03/20 11:42:42;;;;;;;10.80;5.92;;;;;;;10.39;28.13;102990.17;1698160;82;21067;-53
2022/03/20 11:45:17;;;;;;;12.73;6.55;;;;;;;10.45;28.33;102991.23;1744841;81;20992;-53
2022/03/20 11:47:50;;;;;;;10.63;5.05;;;;;;;10.46;28.75;102985.53;1746602;79;21845;-52
2022/03/20 11:50:27;;;;;;;8.65;5.40;;;;;;;10.49;28.32;102988.02;1752775;80;21031;-53
2022/03/20 11:53:03;;;;;;;11.85;5.75;;;;;;;10.55;27.63;102982.06;1700908;82;21139;-53
2022/03/20 11:55:42;;;;;;;10.28;5.47;;;;;;;10.59;27.78;102981.05;1757266;80;20972;-52
2022/03/20 11:58:21;;;;;;;10.98;5.80;;;;;;;10.61;27.59;102978.36;1750491;80;21086;-52
2022/03/20 12:01:04;;;;;;;10.90;6.33;;;;;;;10.66;27.39;102965.87;1743784;80;21225;-53
2022/03/20 12:03:55;;;;;;;14.63;6.95;;;;;;;10.66;27.49;102969.81;1756222;79;21051;-52